createdAt,value
2023-02-18T00:01:35.040Z,8.29
2023-02-18T00:04:01.810Z,7.90
2023-02-18T00:06:31.607Z,7.70
2023-02-18T00:09:02.125Z,7.67
2023-02-18T00:11:31.049Z,7.82
2023-02-18T00:14:00.368Z,7.99
2023-02-18T00:16:28.154Z,8.19
2023-02-18T00:18:57.005Z,8.17
2023-02-18T00:21:24.660Z,8.26
2023-02-18T00:23:51.979Z,8.48
2023-02-18T00:26:19.538Z,8.82
2023-02-18T00:28:48.665Z,8.49
2023-02-18T00:31:19.491Z,8.59
2023-02-18T00:33:46.784Z,8.44
2023-02-18T00:36:15.865Z,8.72
2023-02-18T00:38:56.814Z,8.87
2023-02-18T00:41:25.767Z,8.79
2023-02-18T00:43:52.756Z,8.61
2023-02-18T00:46:20.844Z,8.76
2023-02-18T00:48:47.725Z,8.49
2023-02-18T00:51:14.594Z,8.37
2023-02-18T00:53:41.424Z,8.43
2023-02-18T00:56:08.781Z,8.30
2023-02-18T00:58:36.748Z,7.45
2023-02-18T01:01:07.673Z,7.74
2023-02-18T01:03:35.922Z,7.54
2023-02-18T01:06:03.335Z,7.78
2023-02-18T01:08:30.291Z,7.72
2023-02-18T01:10:59.404Z,8.13
2023-02-18T01:13:29.585Z,8.12
2023-02-18T01:15:56.353Z,8.09
2023-02-18T01:18:24.688Z,7.63
2023-02-18T01:20:52.738Z,6.79
2023-02-18T01:23:21.130Z,7.17
2023-02-18T01:25:49.923Z,6.95
2023-02-18T01:28:17.160Z,7.19
2023-02-18T01:30:44.058Z,7.32
2023-02-18T01:33:11.155Z,7.13
2023-02-18T01:35:41.705Z,7.22
2023-02-18T01:38:09.526Z,7.15
2023-02-18T01:40:37.171Z,6.60
2023-02-18T01:43:04.199Z,6.64
2023-02-18T01:45:33.830Z,6.95
2023-02-18T01:48:05.416Z,6.99
2023-02-18T01:50:34.660Z,6.57
2023-02-18T01:53:02.913Z,7.22
2023-02-18T01:55:31.908Z,7.40
2023-02-18T01:57:58.817Z,7.27
2023-02-18T02:00:25.740Z,7.36
2023-02-18T02:02:53.597Z,7.32
2023-02-18T02:05:21.960Z,7.33
2023-02-18T02:07:52.155Z,6.99
2023-02-18T02:10:19.398Z,6.70
2023-02-18T02:13:05.375Z,7.11
2023-02-18T02:15:48.373Z,6.64
2023-02-18T02:18:36.788Z,6.43
2023-02-18T02:21:07.682Z,6.03
2023-02-18T02:24:14.416Z,6.70
2023-02-18T02:27:07.549Z,7.17
2023-02-18T02:29:46.655Z,7.33
2023-02-18T02:32:31.769Z,7.57
2023-02-18T02:34:58.989Z,7.30
2023-02-18T02:37:31.621Z,7.22
2023-02-18T02:40:07.394Z,7.22
2023-02-18T02:43:06.489Z,6.64
2023-02-18T02:45:33.340Z,6.61
2023-02-18T02:48:23.306Z,6.78
2023-02-18T02:51:02.034Z,6.98
2023-02-18T02:53:33.770Z,6.90
2023-02-18T02:56:00.692Z,7.06
2023-02-18T02:58:28.868Z,7.27
2023-02-18T03:01:16.613Z,7.19
2023-02-18T03:03:59.110Z,7.26
2023-02-18T03:06:38.110Z,7.41
2023-02-18T03:09:16.779Z,7.52
2023-02-18T03:12:24.044Z,7.51
2023-02-18T03:15:01.659Z,7.39
2023-02-18T03:17:46.297Z,7.21
2023-02-18T03:20:21.161Z,7.33
2023-02-18T03:22:51.207Z,7.01
2023-02-18T03:25:19.013Z,7.02
2023-02-18T03:28:15.325Z,7.01
2023-02-18T03:30:48.111Z,6.98
2023-02-18T03:33:20.701Z,7.11
2023-02-18T03:35:49.640Z,6.91
2023-02-18T03:38:24.927Z,6.68
2023-02-18T03:40:52.453Z,6.62
2023-02-18T03:43:19.332Z,6.65
2023-02-18T03:45:46.297Z,6.64
2023-02-18T03:48:13.194Z,6.56
2023-02-18T03:50:40.017Z,6.57
2023-02-18T03:53:06.742Z,6.28
2023-02-18T03:55:33.638Z,6.20
2023-02-18T03:58:00.258Z,5.56
2023-02-18T04:00:27.154Z,5.59
2023-02-18T04:02:53.854Z,5.54
2023-02-18T04:05:20.966Z,5.47
2023-02-18T04:07:47.923Z,5.60
2023-02-18T04:10:14.678Z,5.88
2023-02-18T04:12:41.580Z,5.89
2023-02-18T04:15:08.731Z,6.27
2023-02-18T04:17:35.465Z,6.44
2023-02-18T04:20:03.540Z,6.66
2023-02-18T04:22:30.429Z,6.50
2023-02-18T04:24:57.382Z,6.41
2023-02-18T04:27:25.205Z,6.49
2023-02-18T04:29:52.709Z,6.47
2023-02-18T04:32:19.483Z,6.48
2023-02-18T04:34:46.193Z,6.46
2023-02-18T04:37:13.062Z,6.52
2023-02-18T04:39:39.766Z,6.38
2023-02-18T04:42:09.204Z,6.81
2023-02-18T04:44:37.583Z,6.62
2023-02-18T04:47:05.730Z,6.54
2023-02-18T04:49:32.802Z,6.43
2023-02-18T04:51:59.618Z,6.56
2023-02-18T04:54:26.499Z,6.71
2023-02-18T04:56:53.286Z,6.68
2023-02-18T04:59:20.014Z,6.63
2023-02-18T05:01:46.768Z,6.71
2023-02-18T05:04:13.580Z,6.78
2023-02-18T05:06:40.625Z,6.60
2023-02-18T05:09:07.374Z,6.79
2023-02-18T05:11:34.180Z,6.63
2023-02-18T05:14:00.983Z,6.66
2023-02-18T05:16:27.922Z,6.37
2023-02-18T05:18:54.724Z,5.92
2023-02-18T05:21:21.657Z,5.86
2023-02-18T05:23:48.479Z,5.80
2023-02-18T05:26:17.420Z,5.87
2023-02-18T05:28:44.158Z,5.81
2023-02-18T05:31:10.974Z,5.97
2023-02-18T05:33:37.849Z,6.34
2023-02-18T05:36:06.095Z,6.84
2023-02-18T05:38:33.075Z,6.89
2023-02-18T05:40:59.920Z,6.88
2023-02-18T05:43:26.974Z,6.72
2023-02-18T05:45:53.666Z,6.87
2023-02-18T05:48:20.386Z,7.00
2023-02-18T05:50:47.217Z,7.00
2023-02-18T05:53:15.113Z,7.18
2023-02-18T05:55:42.832Z,7.26
2023-02-18T05:58:09.732Z,7.31
2023-02-18T06:00:36.624Z,7.31
2023-02-18T06:03:03.482Z,7.30
2023-02-18T06:05:30.445Z,6.89
2023-02-18T06:07:57.136Z,6.79
2023-02-18T06:10:24.081Z,6.42
2023-02-18T06:12:50.960Z,6.87
2023-02-18T06:15:18.081Z,7.04
2023-02-18T06:17:44.808Z,7.34
2023-02-18T06:20:12.062Z,7.39
2023-02-18T06:22:38.850Z,6.85
2023-02-18T06:25:07.128Z,6.94
2023-02-18T06:27:33.841Z,6.79
2023-02-18T06:30:00.770Z,6.96
2023-02-18T06:32:27.589Z,6.91
2023-02-18T06:34:54.380Z,6.65
2023-02-18T06:37:21.182Z,7.26
2023-02-18T06:39:47.996Z,7.31
2023-02-18T06:42:14.722Z,7.87
2023-02-18T06:44:41.730Z,7.95
2023-02-18T06:47:08.571Z,8.20
2023-02-18T06:49:36.537Z,8.16
2023-02-18T06:52:03.408Z,8.34
2023-02-18T06:54:30.108Z,8.60
2023-02-18T06:56:57.043Z,8.60
2023-02-18T06:59:23.943Z,8.63
2023-02-18T07:01:50.700Z,8.69
2023-02-18T07:04:17.553Z,8.69
2023-02-18T07:06:44.324Z,8.82
2023-02-18T07:09:11.398Z,8.93
2023-02-18T07:11:38.188Z,8.98
2023-02-18T07:14:06.835Z,9.10
2023-02-18T07:16:34.842Z,9.06
2023-02-18T07:19:01.836Z,9.08
2023-02-18T07:21:29.546Z,9.37
2023-02-18T07:23:56.413Z,9.46
2023-02-18T07:26:23.169Z,9.44
2023-02-18T07:28:49.986Z,9.55
2023-02-18T07:31:17.788Z,9.58
2023-02-18T07:33:44.711Z,9.75
2023-02-18T07:36:11.520Z,9.74
2023-02-18T07:38:38.413Z,9.75
2023-02-18T07:41:05.622Z,9.80
2023-02-18T07:43:32.474Z,9.83
2023-02-18T07:45:59.248Z,9.91
2023-02-18T07:48:26.195Z,9.82
2023-02-18T07:50:53.019Z,9.94
2023-02-18T07:53:20.941Z,9.99
2023-02-18T07:55:50.650Z,9.72
2023-02-18T07:58:22.292Z,9.46
2023-02-18T08:00:50.452Z,9.13
2023-02-18T08:03:18.367Z,9.52
2023-02-18T08:05:45.513Z,10.15
2023-02-18T08:08:14.653Z,10.46
2023-02-18T08:10:41.986Z,10.58
2023-02-18T08:13:10.260Z,11.01
2023-02-18T08:15:37.378Z,11.16
2023-02-18T08:18:04.735Z,10.85
2023-02-18T08:20:31.755Z,10.65
2023-02-18T08:22:58.464Z,10.45
2023-02-18T08:25:29.821Z,11.08
2023-02-18T08:27:57.149Z,11.87
2023-02-18T08:30:23.994Z,11.89
2023-02-18T08:32:50.700Z,11.21
2023-02-18T08:35:18.132Z,11.88
2023-02-18T08:37:52.442Z,11.95
2023-02-18T08:40:21.164Z,12.07
2023-02-18T08:42:47.952Z,12.23
2023-02-18T08:45:14.847Z,12.28
2023-02-18T08:48:17.157Z,12.46
2023-02-18T08:50:28.485Z,12.15
2023-02-18T08:52:56.391Z,12.61
2023-02-18T08:55:24.207Z,12.68
2023-02-18T08:57:50.955Z,12.55
2023-02-18T09:00:18.253Z,12.83
2023-02-18T09:02:45.127Z,12.88
2023-02-18T09:05:12.521Z,12.83
2023-02-18T09:07:39.380Z,12.85
2023-02-18T09:10:07.564Z,13.02
2023-02-18T09:12:34.865Z,12.89
2023-02-18T09:15:04.849Z,12.98
2023-02-18T09:17:31.714Z,13.01
2023-02-18T09:19:58.614Z,12.52
2023-02-18T09:22:25.455Z,12.77
2023-02-18T09:24:53.226Z,12.75
2023-02-18T09:27:20.022Z,12.52
2023-02-18T09:29:46.872Z,13.32
2023-02-18T09:32:20.002Z,13.01
2023-02-18T09:34:53.348Z,13.37
2023-02-18T09:37:20.267Z,13.87
2023-02-18T09:39:48.435Z,14.61
2023-02-18T09:42:20.909Z,14.65
2023-02-18T09:44:52.697Z,14.41
2023-02-18T09:47:37.160Z,15.10
2023-02-18T09:50:11.565Z,15.37
2023-02-18T09:52:39.444Z,15.34
2023-02-18T09:55:27.474Z,15.61
2023-02-18T09:58:03.025Z,15.39
2023-02-18T10:00:36.891Z,15.37
2023-02-18T10:03:17.692Z,14.79
2023-02-18T10:06:02.873Z,15.32
2023-02-18T10:08:47.272Z,15.83
2023-02-18T10:11:29.737Z,15.90
2023-02-18T10:14:00.987Z,16.72
2023-02-18T10:16:28.328Z,16.91
2023-02-18T10:18:58.582Z,17.29
2023-02-18T10:21:30.590Z,17.65
2023-02-18T10:24:30.290Z,17.48
2023-02-18T10:27:15.802Z,17.74
2023-02-18T10:29:42.599Z,17.97
2023-02-18T10:32:37.924Z,18.03
2023-02-18T10:35:24.149Z,17.72
2023-02-18T10:38:15.142Z,18.01
2023-02-18T10:41:01.027Z,18.24
2023-02-18T10:43:27.835Z,18.40
2023-02-18T10:46:13.590Z,18.34
2023-02-18T10:48:51.754Z,18.21
2023-02-18T10:51:25.999Z,18.03
2023-02-18T10:53:54.194Z,18.08
2023-02-18T10:57:04.731Z,18.70
2023-02-18T10:59:33.609Z,19.15
2023-02-18T11:02:03.985Z,19.54
2023-02-18T11:04:42.889Z,18.46
2023-02-18T11:07:16.506Z,18.27
2023-02-18T11:09:47.614Z,17.76
2023-02-18T11:12:20.354Z,18.02
2023-02-18T11:14:50.301Z,18.69
2023-02-18T11:17:27.157Z,18.95
2023-02-18T11:19:59.101Z,19.06
2023-02-18T11:22:33.156Z,19.08
2023-02-18T11:25:02.247Z,18.96
2023-02-18T11:27:42.412Z,19.30
2023-02-18T11:30:25.865Z,18.97
2023-02-18T11:33:07.184Z,18.54
2023-02-18T11:35:35.401Z,18.21
2023-02-18T11:38:04.727Z,18.55
2023-02-18T11:40:35.662Z,18.54
2023-02-18T11:43:22.851Z,18.97
2023-02-18T11:46:18.456Z,18.90
2023-02-18T11:48:46.553Z,18.83
2023-02-18T11:51:28.649Z,18.78
2023-02-18T11:54:04.493Z,19.04
2023-02-18T11:56:36.245Z,19.31
2023-02-18T11:59:04.514Z,19.60
2023-02-18T12:01:51.950Z,19.71
2023-02-18T12:04:28.965Z,19.67
2023-02-18T12:07:12.659Z,20.07
2023-02-18T12:09:46.151Z,20.60
2023-02-18T12:12:33.509Z,20.78
2023-02-18T12:15:00.440Z,21.07
2023-02-18T12:17:33.185Z,20.74
2023-02-18T12:20:51.562Z,20.89
2023-02-18T12:23:31.610Z,20.73
2023-02-18T12:26:10.407Z,20.71
2023-02-18T12:28:55.135Z,20.36
2023-02-18T12:31:39.834Z,20.37
2023-02-18T12:34:24.995Z,21.09
2023-02-18T12:37:00.452Z,21.18
2023-02-18T12:39:49.587Z,21.18
2023-02-18T12:42:50.406Z,21.69
2023-02-18T12:45:47.807Z,21.75
2023-02-18T12:48:23.542Z,21.84
2023-02-18T12:51:02.244Z,22.05
2023-02-18T12:53:58.221Z,22.75
2023-02-18T12:56:55.933Z,23.09
2023-02-18T12:59:43.757Z,23.19
2023-02-18T13:02:31.314Z,23.49
2023-02-18T13:05:12.523Z,23.97
2023-02-18T13:07:42.052Z,24.10
2023-02-18T13:10:24.282Z,23.87
2023-02-18T13:13:19.810Z,23.26
2023-02-18T13:16:00.107Z,23.07
2023-02-18T13:18:38.410Z,22.47
2023-02-18T13:21:09.352Z,22.84
2023-02-18T13:23:42.678Z,22.90
2023-02-18T13:26:13.783Z,22.41
2023-02-18T13:28:52.835Z,22.19
2023-02-18T13:31:28.454Z,22.37
2023-02-18T13:34:20.175Z,22.39
2023-02-18T13:37:24.383Z,21.85
2023-02-18T13:39:55.581Z,21.50
2023-02-18T13:42:31.645Z,21.66
2023-02-18T13:44:58.455Z,21.14
2023-02-18T13:47:46.940Z,20.50
2023-02-18T13:50:23.154Z,20.72
2023-02-18T13:52:51.435Z,21.18
2023-02-18T13:55:23.906Z,20.97
2023-02-18T13:57:54.849Z,20.86
2023-02-18T14:00:34.054Z,20.87
2023-02-18T14:03:22.110Z,20.65
2023-02-18T14:05:49.050Z,20.17
2023-02-18T14:08:39.554Z,20.09
2023-02-18T14:11:12.305Z,20.09
2023-02-18T14:13:49.632Z,19.49
2023-02-18T14:16:16.572Z,19.76
2023-02-18T14:18:43.156Z,20.15
2023-02-18T14:21:12.826Z,19.66
2023-02-18T14:23:45.429Z,19.77
2023-02-18T14:26:15.147Z,19.23
2023-02-18T14:28:47.908Z,19.48
2023-02-18T14:31:31.038Z,19.35
2023-02-18T14:34:01.090Z,19.20
2023-02-18T14:36:43.017Z,19.42
2023-02-18T14:39:48.770Z,19.25
2023-02-18T14:42:42.809Z,19.66
2023-02-18T14:45:10.041Z,19.39
2023-02-18T14:47:45.726Z,19.51
2023-02-18T14:50:16.645Z,19.35
2023-02-18T14:52:57.389Z,19.33
2023-02-18T14:55:28.561Z,19.27
2023-02-18T14:58:06.523Z,19.03
2023-02-18T15:00:42.014Z,18.93
2023-02-18T15:03:13.968Z,18.67
2023-02-18T15:05:40.985Z,18.70
2023-02-18T15:08:16.462Z,18.67
2023-02-18T15:10:49.188Z,18.33
2023-02-18T15:13:37.187Z,18.49
2023-02-18T15:16:08.480Z,18.63
2023-02-18T15:18:46.969Z,18.48
2023-02-18T15:21:24.583Z,18.89
2023-02-18T15:23:52.336Z,18.52
2023-02-18T15:26:21.043Z,18.28
2023-02-18T15:29:05.672Z,18.33
2023-02-18T15:31:38.751Z,18.31
2023-02-18T15:34:24.360Z,18.26
2023-02-18T15:36:53.242Z,18.01
2023-02-18T15:39:19.991Z,18.11
2023-02-18T15:41:47.771Z,17.97
2023-02-18T15:44:22.541Z,18.09
2023-02-18T15:46:49.657Z,18.05
2023-02-18T15:49:20.873Z,17.70
2023-02-18T15:51:48.684Z,17.44
2023-02-18T15:54:20.092Z,17.57
2023-02-18T15:56:51.795Z,17.70
2023-02-18T15:59:33.340Z,17.89
2023-02-18T16:02:16.553Z,17.72
2023-02-18T16:04:48.771Z,17.49
2023-02-18T16:07:26.767Z,17.52
2023-02-18T16:10:15.918Z,17.39
2023-02-18T16:12:48.538Z,17.31
2023-02-18T16:15:23.353Z,17.20
2023-02-18T16:17:50.424Z,17.42
2023-02-18T16:20:29.001Z,17.26
2023-02-18T16:22:59.309Z,17.50
2023-02-18T16:25:47.019Z,17.57
2023-02-18T16:28:24.037Z,17.15
2023-02-18T16:30:50.980Z,17.47
2023-02-18T16:33:17.835Z,17.42
2023-02-18T16:35:50.569Z,17.22
2023-02-18T16:38:20.303Z,17.10
2023-02-18T16:40:47.429Z,17.16
2023-02-18T16:43:19.870Z,17.26
2023-02-18T16:45:57.015Z,16.93
2023-02-18T16:48:31.543Z,17.19
2023-02-18T16:51:06.755Z,17.17
2023-02-18T16:53:33.796Z,17.07
2023-02-18T16:56:01.954Z,17.21
2023-02-18T16:58:29.258Z,17.11
2023-02-18T17:00:56.419Z,17.18
2023-02-18T17:03:26.096Z,17.15
2023-02-18T17:05:52.864Z,17.19
2023-02-18T17:08:24.642Z,17.05
2023-02-18T17:10:56.466Z,17.10
2023-02-18T17:13:32.358Z,16.98
2023-02-18T17:15:59.551Z,16.89
2023-02-18T17:18:26.671Z,16.89
2023-02-18T17:20:54.418Z,16.99
2023-02-18T17:23:23.283Z,16.96
2023-02-18T17:25:51.598Z,16.69
2023-02-18T17:28:21.615Z,16.89
2023-02-18T17:30:56.409Z,16.85
2023-02-18T17:33:25.549Z,16.81
2023-02-18T17:35:52.541Z,16.81
2023-02-18T17:38:20.004Z,16.75
2023-02-18T17:40:48.800Z,16.72
2023-02-18T17:43:17.315Z,16.85
2023-02-18T17:45:49.673Z,16.71
2023-02-18T17:48:16.710Z,16.45
2023-02-18T17:50:43.580Z,16.48
2023-02-18T17:53:14.289Z,16.43
2023-02-18T17:55:42.725Z,16.47
2023-02-18T17:58:10.714Z,16.39
2023-02-18T18:00:46.853Z,16.56
2023-02-18T18:03:14.322Z,15.90
2023-02-18T18:05:43.819Z,15.93
2023-02-18T18:08:10.946Z,15.95
2023-02-18T18:10:59.299Z,15.82
2023-02-18T18:13:34.900Z,15.61
2023-02-18T18:16:01.652Z,15.66
2023-02-18T18:18:28.613Z,15.52
2023-02-18T18:20:59.341Z,15.65
2023-02-18T18:23:26.341Z,15.76
2023-02-18T18:25:58.212Z,15.96
2023-02-18T18:28:26.898Z,16.01
2023-02-18T18:30:56.028Z,16.02
2023-02-18T18:33:24.587Z,16.03
2023-02-18T18:35:52.900Z,16.00
2023-02-18T18:38:21.450Z,16.12
2023-02-18T18:40:48.823Z,16.10
2023-02-18T18:43:26.978Z,16.04
2023-02-18T18:45:54.399Z,16.00
2023-02-18T18:48:22.529Z,16.02
2023-02-18T18:50:51.378Z,15.96
2023-02-18T18:53:25.469Z,16.03
2023-02-18T18:55:55.023Z,15.97
2023-02-18T18:58:24.441Z,15.67
2023-02-18T19:01:03.322Z,15.58
2023-02-18T19:03:33.496Z,15.82
2023-02-18T19:06:00.263Z,15.73
2023-02-18T19:08:27.167Z,15.72
2023-02-18T19:10:56.305Z,15.87
2023-02-18T19:13:28.484Z,15.76
2023-02-18T19:16:15.434Z,15.80
2023-02-18T19:18:42.167Z,15.36
2023-02-18T19:21:09.199Z,15.20
2023-02-18T19:23:36.552Z,15.33
2023-02-18T19:26:03.880Z,15.34
2023-02-18T19:28:30.796Z,15.53
2023-02-18T19:30:57.926Z,15.51
2023-02-18T19:33:25.354Z,15.16
2023-02-18T19:35:52.153Z,15.42
2023-02-18T19:38:19.108Z,15.17
2023-02-18T19:40:46.193Z,15.27
2023-02-18T19:43:13.314Z,15.01
2023-02-18T19:45:45.246Z,15.12
2023-02-18T19:48:13.784Z,15.16
2023-02-18T19:50:41.977Z,15.11
2023-02-18T19:53:09.773Z,15.19
2023-02-18T19:55:36.934Z,15.17
2023-02-18T19:58:04.047Z,15.19
2023-02-18T20:00:30.959Z,14.75
2023-02-18T20:02:58.360Z,14.11
2023-02-18T20:05:25.363Z,14.58
2023-02-18T20:07:52.181Z,14.70
2023-02-18T20:10:22.642Z,14.81
2023-02-18T20:12:54.124Z,14.87
2023-02-18T20:15:21.900Z,14.71
2023-02-18T20:17:49.275Z,14.53
2023-02-18T20:20:16.417Z,14.82
2023-02-18T20:22:43.413Z,14.55
2023-02-18T20:25:10.521Z,14.38
2023-02-18T20:27:45.155Z,14.51
2023-02-18T20:30:17.920Z,14.50
2023-02-18T20:32:45.174Z,14.47
2023-02-18T20:35:12.036Z,14.09
2023-02-18T20:37:39.531Z,13.46
2023-02-18T20:40:08.651Z,13.02
2023-02-18T20:42:35.568Z,13.38
2023-02-18T20:45:02.541Z,13.13
2023-02-18T20:47:29.412Z,13.30
2023-02-18T20:49:56.269Z,13.75
2023-02-18T20:52:24.052Z,13.78
2023-02-18T20:54:50.751Z,13.60
2023-02-18T20:57:17.942Z,13.80
2023-02-18T20:59:45.882Z,13.84
2023-02-18T21:02:14.095Z,13.88
2023-02-18T21:04:40.806Z,13.60
2023-02-18T21:07:07.725Z,13.65
2023-02-18T21:09:34.539Z,12.90
2023-02-18T21:12:01.409Z,13.40
2023-02-18T21:14:28.251Z,13.42
2023-02-18T21:16:55.117Z,13.40
2023-02-18T21:19:21.912Z,13.37
2023-02-18T21:21:48.824Z,13.24
2023-02-18T21:24:15.701Z,13.40
2023-02-18T21:26:42.832Z,13.25
2023-02-18T21:29:09.850Z,13.38
2023-02-18T21:31:39.981Z,13.19
2023-02-18T21:34:10.166Z,13.06
2023-02-18T21:36:37.175Z,13.18
2023-02-18T21:39:06.778Z,13.33
2023-02-18T21:41:37.127Z,13.26
2023-02-18T21:44:05.069Z,13.12
2023-02-18T21:46:34.240Z,12.99
2023-02-18T21:49:06.988Z,12.42
2023-02-18T21:51:59.156Z,12.94
2023-02-18T21:54:33.859Z,13.12
2023-02-18T21:57:04.004Z,13.29
2023-02-18T21:59:32.259Z,13.17
2023-02-18T22:02:02.299Z,13.12
2023-02-18T22:04:30.974Z,12.96
2023-02-18T22:06:58.488Z,13.02
2023-02-18T22:09:25.854Z,12.87
2023-02-18T22:11:52.939Z,12.81
2023-02-18T22:14:19.997Z,12.82
2023-02-18T22:16:46.913Z,12.88
2023-02-18T22:19:14.632Z,12.90
2023-02-18T22:21:42.160Z,12.98
2023-02-18T22:24:10.992Z,12.83
2023-02-18T22:26:37.782Z,12.77
2023-02-18T22:29:04.965Z,12.81
2023-02-18T22:31:33.048Z,12.70
2023-02-18T22:34:00.847Z,12.49
2023-02-18T22:36:28.597Z,12.74
2023-02-18T22:38:57.585Z,12.68
2023-02-18T22:41:26.324Z,12.24
2023-02-18T22:43:57.631Z,11.76
2023-02-18T22:46:25.273Z,11.95
2023-02-18T22:48:53.280Z,11.74
2023-02-18T22:51:25.199Z,12.03
2023-02-18T22:53:55.378Z,11.91
2023-02-18T22:56:25.063Z,11.43
2023-02-18T22:58:55.617Z,11.21
2023-02-18T23:01:26.479Z,11.62
2023-02-18T23:03:53.672Z,11.38
2023-02-18T23:06:22.653Z,11.46
2023-02-18T23:08:50.259Z,11.78
2023-02-18T23:11:19.651Z,12.14
2023-02-18T23:14:06.656Z,12.09
2023-02-18T23:16:56.003Z,12.30
2023-02-18T23:19:26.097Z,12.44
2023-02-18T23:21:53.036Z,12.59
2023-02-18T23:24:20.602Z,12.48
2023-02-18T23:26:47.433Z,12.45
2023-02-18T23:29:14.925Z,12.53
2023-02-18T23:31:41.875Z,12.45
2023-02-18T23:34:13.101Z,12.14
2023-02-18T23:36:40.323Z,12.20
2023-02-18T23:39:10.374Z,12.37
2023-02-18T23:41:37.765Z,12.42
2023-02-18T23:44:07.518Z,12.47
2023-02-18T23:46:34.683Z,12.48
2023-02-18T23:49:01.843Z,12.33
2023-02-18T23:51:29.806Z,12.66
2023-02-18T23:53:57.045Z,12.45
2023-02-18T23:56:27.766Z,12.64
2023-02-18T23:58:57.491Z,12.53
